sensor_id;sensor_type;location;lat;lon;timestamp;P1;durP1;ratioP1;P2;durP2;ratioP2
59938;SDS011;45801;51.810;19.444;2023-10-19T00:00:53;30.90;;;20.70;;
59938;SDS011;45801;51.810;19.444;2023-10-19T00:03:34;30.30;;;21.40;;
59938;SDS011;45801;51.810;19.444;2023-10-19T00:06:00;29.10;;;20.40;;
59938;SDS011;45801;51.810;19.444;2023-10-19T00:08:27;29.40;;;19.60;;
59938;SDS011;45801;51.810;19.444;2023-10-19T00:11:02;31.70;;;19.20;;
59938;SDS011;45801;51.810;19.444;2023-10-19T00:13:31;27.70;;;18.90;;
59938;SDS011;45801;51.810;19.444;2023-10-19T00:15:58;28.40;;;17.80;;
59938;SDS011;45801;51.810;19.444;2023-10-19T00:18:25;27.20;;;18.90;;
59938;SDS011;45801;51.810;19.444;2023-10-19T00:20:52;28.20;;;18.10;;
59938;SDS011;45801;51.810;19.444;2023-10-19T00:23:23;27.90;;;17.90;;
59938;SDS011;45801;51.810;19.444;2023-10-19T00:25:57;27.40;;;19.10;;
59938;SDS011;45801;51.810;19.444;2023-10-19T00:28:26;27.10;;;16.70;;
59938;SDS011;45801;51.810;19.444;2023-10-19T00:30:53;24.30;;;17.40;;
59938;SDS011;45801;51.810;19.444;2023-10-19T00:35:55;23.00;;;15.70;;
59938;SDS011;45801;51.810;19.444;2023-10-19T00:38:27;27.70;;;17.50;;
59938;SDS011;45801;51.810;19.444;2023-10-19T00:40:54;24.80;;;16.30;;
59938;SDS011;45801;51.810;19.444;2023-10-19T00:43:26;25.20;;;16.00;;
59938;SDS011;45801;51.810;19.444;2023-10-19T00:46:02;24.50;;;17.10;;
59938;SDS011;45801;51.810;19.444;2023-10-19T00:48:33;24.40;;;16.60;;
59938;SDS011;45801;51.810;19.444;2023-10-19T00:51:01;21.70;;;14.40;;
59938;SDS011;45801;51.810;19.444;2023-10-19T00:53:55;25.00;;;15.90;;
59938;SDS011;45801;51.810;19.444;2023-10-19T00:56:24;23.80;;;15.60;;
59938;SDS011;45801;51.810;19.444;2023-10-19T00:58:57;22.60;;;15.00;;
59938;SDS011;45801;51.810;19.444;2023-10-19T01:01:33;22.10;;;14.70;;
59938;SDS011;45801;51.810;19.444;2023-10-19T01:04:06;25.50;;;15.90;;
59938;SDS011;45801;51.810;19.444;2023-10-19T01:06:33;23.30;;;15.90;;
59938;SDS011;45801;51.810;19.444;2023-10-19T01:09:00;22.70;;;15.30;;
59938;SDS011;45801;51.810;19.444;2023-10-19T01:11:28;23.20;;;15.50;;
59938;SDS011;45801;51.810;19.444;2023-10-19T01:13:56;23.00;;;15.40;;
59938;SDS011;45801;51.810;19.444;2023-10-19T01:16:22;24.20;;;14.90;;
59938;SDS011;45801;51.810;19.444;2023-10-19T01:18:49;24.90;;;15.50;;
59938;SDS011;45801;51.810;19.444;2023-10-19T01:21:23;23.30;;;15.60;;
59938;SDS011;45801;51.810;19.444;2023-10-19T01:24:07;23.80;;;16.00;;
59938;SDS011;45801;51.810;19.444;2023-10-19T01:26:35;22.80;;;14.60;;
59938;SDS011;45801;51.810;19.444;2023-10-19T01:29:04;23.70;;;15.80;;
59938;SDS011;45801;51.810;19.444;2023-10-19T01:31:43;23.20;;;16.20;;
59938;SDS011;45801;51.810;19.444;2023-10-19T01:34:39;25.10;;;13.70;;
59938;SDS011;45801;51.810;19.444;2023-10-19T01:37:05;21.60;;;14.50;;
59938;SDS011;45801;51.810;19.444;2023-10-19T01:39:35;20.80;;;14.70;;
59938;SDS011;45801;51.810;19.444;2023-10-19T01:42:03;21.30;;;13.80;;
59938;SDS011;45801;51.810;19.444;2023-10-19T01:44:35;23.30;;;14.70;;
59938;SDS011;45801;51.810;19.444;2023-10-19T01:47:02;20.30;;;14.20;;
59938;SDS011;45801;51.810;19.444;2023-10-19T01:49:32;20.30;;;13.20;;
59938;SDS011;45801;51.810;19.444;2023-10-19T01:51:58;22.40;;;14.40;;
59938;SDS011;45801;51.810;19.444;2023-10-19T01:54:25;23.80;;;15.00;;
59938;SDS011;45801;51.810;19.444;2023-10-19T01:56:52;24.20;;;14.70;;
59938;SDS011;45801;51.810;19.444;2023-10-19T01:59:22;20.50;;;12.90;;
59938;SDS011;45801;51.810;19.444;2023-10-19T02:01:54;21.00;;;13.80;;
59938;SDS011;45801;51.810;19.444;2023-10-19T02:04:21;19.90;;;13.60;;
59938;SDS011;45801;51.810;19.444;2023-10-19T02:06:48;23.00;;;14.40;;
59938;SDS011;45801;51.810;19.444;2023-10-19T02:09:16;21.90;;;14.00;;
59938;SDS011;45801;51.810;19.444;2023-10-19T02:11:53;20.80;;;13.60;;
59938;SDS011;45801;51.810;19.444;2023-10-19T02:14:25;18.80;;;13.10;;
59938;SDS011;45801;51.810;19.444;2023-10-19T02:16:53;21.40;;;13.60;;
59938;SDS011;45801;51.810;19.444;2023-10-19T02:19:25;20.50;;;13.80;;
59938;SDS011;45801;51.810;19.444;2023-10-19T02:21:54;20.30;;;14.00;;
59938;SDS011;45801;51.810;19.444;2023-10-19T02:24:22;20.70;;;13.00;;
59938;SDS011;45801;51.810;19.444;2023-10-19T02:26:50;21.80;;;13.60;;
59938;SDS011;45801;51.810;19.444;2023-10-19T02:29:17;18.90;;;13.30;;
59938;SDS011;45801;51.810;19.444;2023-10-19T02:31:44;21.80;;;13.30;;
59938;SDS011;45801;51.810;19.444;2023-10-19T02:34:15;19.90;;;13.40;;
59938;SDS011;45801;51.810;19.444;2023-10-19T02:36:42;21.60;;;14.30;;
59938;SDS011;45801;51.810;19.444;2023-10-19T02:39:11;20.90;;;13.70;;
59938;SDS011;45801;51.810;19.444;2023-10-19T02:41:44;20.30;;;12.90;;
59938;SDS011;45801;51.810;19.444;2023-10-19T02:44:12;20.80;;;13.50;;
59938;SDS011;45801;51.810;19.444;2023-10-19T02:46:40;20.50;;;12.80;;
59938;SDS011;45801;51.810;19.444;2023-10-19T02:49:08;19.70;;;13.10;;
59938;SDS011;45801;51.810;19.444;2023-10-19T02:51:39;20.90;;;13.80;;
59938;SDS011;45801;51.810;19.444;2023-10-19T02:54:07;19.80;;;12.80;;
59938;SDS011;45801;51.810;19.444;2023-10-19T02:56:34;20.40;;;13.60;;
59938;SDS011;45801;51.810;19.444;2023-10-19T02:59:02;22.80;;;13.30;;
59938;SDS011;45801;51.810;19.444;2023-10-19T03:01:31;22.30;;;13.70;;
59938;SDS011;45801;51.810;19.444;2023-10-19T03:04:01;20.80;;;13.10;;
59938;SDS011;45801;51.810;19.444;2023-10-19T03:06:30;19.40;;;11.90;;
59938;SDS011;45801;51.810;19.444;2023-10-19T03:08:59;19.30;;;12.50;;
59938;SDS011;45801;51.810;19.444;2023-10-19T03:11:39;19.60;;;11.70;;
59938;SDS011;45801;51.810;19.444;2023-10-19T03:14:08;19.90;;;13.00;;
59938;SDS011;45801;51.810;19.444;2023-10-19T03:16:36;20.30;;;13.20;;
59938;SDS011;45801;51.810;19.444;2023-10-19T03:19:03;19.80;;;12.30;;
59938;SDS011;45801;51.810;19.444;2023-10-19T03:21:30;20.30;;;13.00;;
59938;SDS011;45801;51.810;19.444;2023-10-19T03:24:09;17.80;;;11.90;;
59938;SDS011;45801;51.810;19.444;2023-10-19T03:26:40;19.40;;;12.30;;
59938;SDS011;45801;51.810;19.444;2023-10-19T03:29:15;19.10;;;13.00;;
59938;SDS011;45801;51.810;19.444;2023-10-19T03:31:48;21.10;;;13.20;;
59938;SDS011;45801;51.810;19.444;2023-10-19T03:34:14;18.90;;;12.40;;
59938;SDS011;45801;51.810;19.444;2023-10-19T03:36:44;21.10;;;13.90;;
59938;SDS011;45801;51.810;19.444;2023-10-19T03:39:11;19.30;;;13.00;;
59938;SDS011;45801;51.810;19.444;2023-10-19T03:41:39;22.40;;;12.70;;
59938;SDS011;45801;51.810;19.444;2023-10-19T03:44:11;21.50;;;13.30;;
59938;SDS011;45801;51.810;19.444;2023-10-19T03:46:50;21.30;;;12.70;;
59938;SDS011;45801;51.810;19.444;2023-10-19T03:49:22;19.50;;;12.70;;
59938;SDS011;45801;51.810;19.444;2023-10-19T03:51:49;21.40;;;12.90;;
59938;SDS011;45801;51.810;19.444;2023-10-19T03:54:26;22.00;;;12.20;;
59938;SDS011;45801;51.810;19.444;2023-10-19T03:56:54;20.20;;;13.00;;
59938;SDS011;45801;51.810;19.444;2023-10-19T03:59:23;21.00;;;13.30;;
59938;SDS011;45801;51.810;19.444;2023-10-19T04:01:56;20.00;;;12.30;;
59938;SDS011;45801;51.810;19.444;2023-10-19T04:04:22;20.00;;;13.00;;
59938;SDS011;45801;51.810;19.444;2023-10-19T04:06:49;20.20;;;12.90;;
59938;SDS011;45801;51.810;19.444;2023-10-19T04:09:20;18.80;;;12.00;;
59938;SDS011;45801;51.810;19.444;2023-10-19T04:11:47;20.00;;;13.20;;
59938;SDS011;45801;51.810;19.444;2023-10-19T04:14:17;18.20;;;12.10;;
59938;SDS011;45801;51.810;19.444;2023-10-19T04:16:46;18.60;;;12.00;;
59938;SDS011;45801;51.810;19.444;2023-10-19T04:19:15;19.30;;;12.30;;
59938;SDS011;45801;51.810;19.444;2023-10-19T04:21:42;20.60;;;12.60;;
59938;SDS011;45801;51.810;19.444;2023-10-19T04:24:17;17.20;;;11.90;;
59938;SDS011;45801;51.810;19.444;2023-10-19T04:26:45;18.30;;;11.80;;
59938;SDS011;45801;51.810;19.444;2023-10-19T04:29:12;19.60;;;12.10;;
59938;SDS011;45801;51.810;19.444;2023-10-19T04:34:17;17.30;;;11.70;;
59938;SDS011;45801;51.810;19.444;2023-10-19T04:36:47;19.90;;;12.80;;
59938;SDS011;45801;51.810;19.444;2023-10-19T04:39:14;21.00;;;13.10;;
59938;SDS011;45801;51.810;19.444;2023-10-19T04:41:41;18.40;;;12.90;;
59938;SDS011;45801;51.810;19.444;2023-10-19T04:44:09;19.90;;;13.00;;
59938;SDS011;45801;51.810;19.444;2023-10-19T04:46:35;20.60;;;13.90;;
59938;SDS011;45801;51.810;19.444;2023-10-19T04:49:03;18.50;;;12.20;;
59938;SDS011;45801;51.810;19.444;2023-10-19T04:51:32;20.10;;;12.80;;
59938;SDS011;45801;51.810;19.444;2023-10-19T04:54:00;22.60;;;13.30;;
59938;SDS011;45801;51.810;19.444;2023-10-19T04:56:28;18.90;;;12.20;;
59938;SDS011;45801;51.810;19.444;2023-10-19T04:58:55;18.80;;;13.00;;
59938;SDS011;45801;51.810;19.444;2023-10-19T05:01:22;22.00;;;15.10;;
59938;SDS011;45801;51.810;19.444;2023-10-19T05:03:49;17.20;;;12.20;;
59938;SDS011;45801;51.810;19.444;2023-10-19T05:06:16;21.50;;;12.80;;
59938;SDS011;45801;51.810;19.444;2023-10-19T05:08:43;19.60;;;12.50;;
59938;SDS011;45801;51.810;19.444;2023-10-19T05:11:10;21.10;;;13.70;;
59938;SDS011;45801;51.810;19.444;2023-10-19T05:13:36;21.20;;;14.00;;
59938;SDS011;45801;51.810;19.444;2023-10-19T05:16:03;20.20;;;12.30;;
59938;SDS011;45801;51.810;19.444;2023-10-19T05:18:30;20.20;;;12.50;;
59938;SDS011;45801;51.810;19.444;2023-10-19T05:20:57;19.00;;;12.60;;
59938;SDS011;45801;51.810;19.444;2023-10-19T05:23:29;23.10;;;13.90;;
59938;SDS011;45801;51.810;19.444;2023-10-19T05:28:28;19.50;;;13.60;;
59938;SDS011;45801;51.810;19.444;2023-10-19T05:30:56;19.20;;;12.90;;
59938;SDS011;45801;51.810;19.444;2023-10-19T05:33:25;20.80;;;13.30;;
59938;SDS011;45801;51.810;19.444;2023-10-19T05:35:55;19.30;;;12.20;;
59938;SDS011;45801;51.810;19.444;2023-10-19T05:38:22;20.20;;;13.20;;
59938;SDS011;45801;51.810;19.444;2023-10-19T05:40:49;20.60;;;12.40;;
59938;SDS011;45801;51.810;19.444;2023-10-19T05:43:18;22.30;;;13.40;;
59938;SDS011;45801;51.810;19.444;2023-10-19T05:45:45;19.50;;;12.70;;
59938;SDS011;45801;51.810;19.444;2023-10-19T05:48:11;20.10;;;13.40;;
59938;SDS011;45801;51.810;19.444;2023-10-19T05:50:38;22.10;;;13.60;;
59938;SDS011;45801;51.810;19.444;2023-10-19T05:53:06;22.20;;;14.90;;
59938;SDS011;45801;51.810;19.444;2023-10-19T05:55:32;21.70;;;15.50;;
59938;SDS011;45801;51.810;19.444;2023-10-19T05:58:00;24.30;;;15.70;;
59938;SDS011;45801;51.810;19.444;2023-10-19T06:00:27;24.10;;;15.80;;
59938;SDS011;45801;51.810;19.444;2023-10-19T06:02:53;23.00;;;14.70;;
59938;SDS011;45801;51.810;19.444;2023-10-19T06:05:26;23.50;;;14.80;;
59938;SDS011;45801;51.810;19.444;2023-10-19T06:07:53;22.20;;;14.60;;
59938;SDS011;45801;51.810;19.444;2023-10-19T06:10:20;19.90;;;13.50;;
59938;SDS011;45801;51.810;19.444;2023-10-19T06:12:49;23.70;;;13.60;;
59938;SDS011;45801;51.810;19.444;2023-10-19T06:15:21;26.30;;;14.80;;
59938;SDS011;45801;51.810;19.444;2023-10-19T06:17:50;25.10;;;14.20;;
59938;SDS011;45801;51.810;19.444;2023-10-19T06:20:17;20.10;;;13.20;;
59938;SDS011;45801;51.810;19.444;2023-10-19T06:22:50;20.10;;;12.30;;
59938;SDS011;45801;51.810;19.444;2023-10-19T06:25:23;22.00;;;13.60;;
59938;SDS011;45801;51.810;19.444;2023-10-19T06:27:51;19.40;;;11.60;;
59938;SDS011;45801;51.810;19.444;2023-10-19T06:30:18;18.90;;;11.70;;
59938;SDS011;45801;51.810;19.444;2023-10-19T06:32:47;19.40;;;11.90;;
59938;SDS011;45801;51.810;19.444;2023-10-19T06:35:20;22.10;;;12.90;;
59938;SDS011;45801;51.810;19.444;2023-10-19T06:37:47;19.70;;;12.50;;
59938;SDS011;45801;51.810;19.444;2023-10-19T06:40:15;21.70;;;13.40;;
59938;SDS011;45801;51.810;19.444;2023-10-19T06:42:43;22.20;;;12.60;;
59938;SDS011;45801;51.810;19.444;2023-10-19T06:45:13;20.30;;;13.00;;
59938;SDS011;45801;51.810;19.444;2023-10-19T06:47:41;19.80;;;14.10;;
59938;SDS011;45801;51.810;19.444;2023-10-19T06:50:14;21.10;;;13.20;;
59938;SDS011;45801;51.810;19.444;2023-10-19T06:52:43;20.20;;;13.00;;
59938;SDS011;45801;51.810;19.444;2023-10-19T06:55:11;22.00;;;14.10;;
59938;SDS011;45801;51.810;19.444;2023-10-19T06:57:43;20.50;;;13.30;;
59938;SDS011;45801;51.810;19.444;2023-10-19T07:00:11;20.40;;;13.30;;
59938;SDS011;45801;51.810;19.444;2023-10-19T07:02:42;20.30;;;12.50;;
59938;SDS011;45801;51.810;19.444;2023-10-19T07:05:10;19.80;;;14.40;;
59938;SDS011;45801;51.810;19.444;2023-10-19T07:07:40;19.80;;;12.30;;
59938;SDS011;45801;51.810;19.444;2023-10-19T07:10:08;18.50;;;12.20;;
59938;SDS011;45801;51.810;19.444;2023-10-19T07:12:36;18.40;;;12.30;;
59938;SDS011;45801;51.810;19.444;2023-10-19T07:15:06;19.90;;;12.30;;
59938;SDS011;45801;51.810;19.444;2023-10-19T07:17:34;18.20;;;9.90;;
59938;SDS011;45801;51.810;19.444;2023-10-19T07:20:01;19.50;;;12.70;;
59938;SDS011;45801;51.810;19.444;2023-10-19T07:22:32;19.90;;;12.70;;
59938;SDS011;45801;51.810;19.444;2023-10-19T07:24:59;20.00;;;12.40;;
59938;SDS011;45801;51.810;19.444;2023-10-19T07:27:26;28.20;;;14.20;;
59938;SDS011;45801;51.810;19.444;2023-10-19T07:29:54;20.40;;;13.40;;
59938;SDS011;45801;51.810;19.444;2023-10-19T07:32:21;23.80;;;14.70;;
59938;SDS011;45801;51.810;19.444;2023-10-19T07:34:48;20.70;;;14.10;;
59938;SDS011;45801;51.810;19.444;2023-10-19T07:37:14;19.40;;;13.40;;
59938;SDS011;45801;51.810;19.444;2023-10-19T07:39:47;23.40;;;14.20;;
59938;SDS011;45801;51.810;19.444;2023-10-19T07:42:14;20.90;;;13.40;;
59938;SDS011;45801;51.810;19.444;2023-10-19T07:44:41;18.80;;;13.10;;
59938;SDS011;45801;51.810;19.444;2023-10-19T07:47:07;22.10;;;13.00;;
59938;SDS011;45801;51.810;19.444;2023-10-19T07:49:36;19.40;;;13.40;;
59938;SDS011;45801;51.810;19.444;2023-10-19T07:52:05;21.60;;;13.10;;
59938;SDS011;45801;51.810;19.444;2023-10-19T07:54:33;24.40;;;14.60;;
59938;SDS011;45801;51.810;19.444;2023-10-19T07:57:01;22.30;;;15.10;;
59938;SDS011;45801;51.810;19.444;2023-10-19T07:59:34;24.90;;;14.90;;
59938;SDS011;45801;51.810;19.444;2023-10-19T08:02:01;23.10;;;14.50;;
59938;SDS011;45801;51.810;19.444;2023-10-19T08:04:30;22.40;;;13.40;;
59938;SDS011;45801;51.810;19.444;2023-10-19T08:06:57;21.10;;;13.80;;
59938;SDS011;45801;51.810;19.444;2023-10-19T08:09:24;20.90;;;13.30;;
59938;SDS011;45801;51.810;19.444;2023-10-19T08:11:52;23.00;;;14.50;;
59938;SDS011;45801;51.810;19.444;2023-10-19T08:14:22;21.50;;;14.20;;
59938;SDS011;45801;51.810;19.444;2023-10-19T08:16:51;23.00;;;15.50;;
59938;SDS011;45801;51.810;19.444;2023-10-19T08:19:19;22.70;;;15.00;;
59938;SDS011;45801;51.810;19.444;2023-10-19T08:21:46;21.50;;;14.30;;
59938;SDS011;45801;51.810;19.444;2023-10-19T08:24:13;22.30;;;14.90;;
59938;SDS011;45801;51.810;19.444;2023-10-19T08:26:40;22.60;;;14.50;;
59938;SDS011;45801;51.810;19.444;2023-10-19T08:29:08;22.00;;;15.30;;
59938;SDS011;45801;51.810;19.444;2023-10-19T08:31:42;25.80;;;16.60;;
59938;SDS011;45801;51.810;19.444;2023-10-19T08:34:10;24.80;;;15.70;;
59938;SDS011;45801;51.810;19.444;2023-10-19T08:36:38;23.60;;;16.00;;
59938;SDS011;45801;51.810;19.444;2023-10-19T08:39:05;23.40;;;15.60;;
59938;SDS011;45801;51.810;19.444;2023-10-19T08:41:34;24.50;;;15.20;;
59938;SDS011;45801;51.810;19.444;2023-10-19T08:44:06;23.80;;;14.90;;
59938;SDS011;45801;51.810;19.444;2023-10-19T08:46:42;22.60;;;15.30;;
59938;SDS011;45801;51.810;19.444;2023-10-19T08:49:13;26.60;;;16.20;;
59938;SDS011;45801;51.810;19.444;2023-10-19T08:51:43;23.00;;;15.30;;
59938;SDS011;45801;51.810;19.444;2023-10-19T08:54:11;24.00;;;15.80;;
59938;SDS011;45801;51.810;19.444;2023-10-19T08:56:38;23.50;;;15.20;;
59938;SDS011;45801;51.810;19.444;2023-10-19T08:59:08;22.40;;;14.80;;
59938;SDS011;45801;51.810;19.444;2023-10-19T09:01:37;23.50;;;14.90;;
59938;SDS011;45801;51.810;19.444;2023-10-19T09:04:04;24.30;;;16.10;;
59938;SDS011;45801;51.810;19.444;2023-10-19T09:06:34;21.00;;;14.30;;
59938;SDS011;45801;51.810;19.444;2023-10-19T09:09:11;24.20;;;15.00;;
59938;SDS011;45801;51.810;19.444;2023-10-19T09:11:51;21.30;;;14.10;;
59938;SDS011;45801;51.810;19.444;2023-10-19T09:17:13;23.80;;;14.30;;
59938;SDS011;45801;51.810;19.444;2023-10-19T09:19:40;20.40;;;14.10;;
59938;SDS011;45801;51.810;19.444;2023-10-19T09:22:13;22.00;;;13.80;;
59938;SDS011;45801;51.810;19.444;2023-10-19T09:24:45;21.80;;;13.50;;
59938;SDS011;45801;51.810;19.444;2023-10-19T09:27:12;22.80;;;13.80;;
59938;SDS011;45801;51.810;19.444;2023-10-19T09:29:39;22.70;;;14.20;;
59938;SDS011;45801;51.810;19.444;2023-10-19T09:32:07;20.30;;;13.60;;
59938;SDS011;45801;51.810;19.444;2023-10-19T09:34:34;20.60;;;13.00;;
59938;SDS011;45801;51.810;19.444;2023-10-19T09:37:02;21.40;;;14.10;;
59938;SDS011;45801;51.810;19.444;2023-10-19T09:39:30;20.40;;;12.90;;
59938;SDS011;45801;51.810;19.444;2023-10-19T09:42:05;21.50;;;13.70;;
59938;SDS011;45801;51.810;19.444;2023-10-19T09:44:44;22.70;;;15.20;;
59938;SDS011;45801;51.810;19.444;2023-10-19T09:47:12;20.70;;;12.80;;
59938;SDS011;45801;51.810;19.444;2023-10-19T09:49:44;20.60;;;12.70;;
59938;SDS011;45801;51.810;19.444;2023-10-19T09:52:10;21.80;;;14.30;;
59938;SDS011;45801;51.810;19.444;2023-10-19T09:54:54;21.00;;;13.90;;
59938;SDS011;45801;51.810;19.444;2023-10-19T10:00:26;21.70;;;14.10;;
59938;SDS011;45801;51.810;19.444;2023-10-19T10:02:58;22.40;;;15.30;;
59938;SDS011;45801;51.810;19.444;2023-10-19T10:10:45;23.50;;;13.60;;
59938;SDS011;45801;51.810;19.444;2023-10-19T10:15:57;21.40;;;14.80;;
59938;SDS011;45801;51.810;19.444;2023-10-19T10:18:27;24.30;;;14.90;;
59938;SDS011;45801;51.810;19.444;2023-10-19T10:21:12;23.00;;;15.50;;
59938;SDS011;45801;51.810;19.444;2023-10-19T10:23:44;21.30;;;14.10;;
59938;SDS011;45801;51.810;19.444;2023-10-19T10:26:30;21.30;;;14.10;;
59938;SDS011;45801;51.810;19.444;2023-10-19T10:29:23;24.60;;;15.30;;
59938;SDS011;45801;51.810;19.444;2023-10-19T10:31:50;20.40;;;13.30;;
59938;SDS011;45801;51.810;19.444;2023-10-19T10:37:21;21.80;;;15.10;;
59938;SDS011;45801;51.810;19.444;2023-10-19T10:39:48;22.30;;;14.50;;
59938;SDS011;45801;51.810;19.444;2023-10-19T10:42:16;24.30;;;16.30;;
59938;SDS011;45801;51.810;19.444;2023-10-19T10:47:11;26.10;;;16.50;;
59938;SDS011;45801;51.810;19.444;2023-10-19T10:49:52;24.20;;;15.90;;
59938;SDS011;45801;51.810;19.444;2023-10-19T10:52:23;23.40;;;15.70;;
59938;SDS011;45801;51.810;19.444;2023-10-19T10:54:52;25.20;;;16.50;;
59938;SDS011;45801;51.810;19.444;2023-10-19T10:57:19;26.10;;;16.90;;
59938;SDS011;45801;51.810;19.444;2023-10-19T10:59:46;24.70;;;17.00;;
59938;SDS011;45801;51.810;19.444;2023-10-19T11:02:19;23.00;;;15.40;;
59938;SDS011;45801;51.810;19.444;2023-10-19T11:04:47;23.80;;;17.30;;
59938;SDS011;45801;51.810;19.444;2023-10-19T11:07:17;23.50;;;16.50;;
59938;SDS011;45801;51.810;19.444;2023-10-19T11:09:46;23.60;;;16.80;;
59938;SDS011;45801;51.810;19.444;2023-10-19T11:12:14;24.70;;;16.50;;
59938;SDS011;45801;51.810;19.444;2023-10-19T11:14:55;23.80;;;16.60;;
59938;SDS011;45801;51.810;19.444;2023-10-19T11:17:24;26.60;;;17.00;;
59938;SDS011;45801;51.810;19.444;2023-10-19T11:19:57;23.60;;;16.00;;
59938;SDS011;45801;51.810;19.444;2023-10-19T11:22:25;23.00;;;15.50;;
59938;SDS011;45801;51.810;19.444;2023-10-19T11:24:53;24.30;;;16.70;;
59938;SDS011;45801;51.810;19.444;2023-10-19T11:27:24;24.90;;;17.90;;
59938;SDS011;45801;51.810;19.444;2023-10-19T11:29:58;25.50;;;16.60;;
59938;SDS011;45801;51.810;19.444;2023-10-19T11:32:36;23.80;;;16.60;;
59938;SDS011;45801;51.810;19.444;2023-10-19T11:35:06;24.50;;;17.60;;
59938;SDS011;45801;51.810;19.444;2023-10-19T11:37:46;28.10;;;17.80;;
59938;SDS011;45801;51.810;19.444;2023-10-19T11:42:42;24.90;;;16.30;;
59938;SDS011;45801;51.810;19.444;2023-10-19T11:45:10;24.50;;;17.20;;
59938;SDS011;45801;51.810;19.444;2023-10-19T11:47:38;23.70;;;15.90;;
59938;SDS011;45801;51.810;19.444;2023-10-19T11:50:05;22.30;;;16.20;;
59938;SDS011;45801;51.810;19.444;2023-10-19T11:52:32;22.00;;;15.20;;
59938;SDS011;45801;51.810;19.444;2023-10-19T11:54:59;22.00;;;16.10;;
59938;SDS011;45801;51.810;19.444;2023-10-19T11:57:26;23.70;;;15.30;;
59938;SDS011;45801;51.810;19.444;2023-10-19T11:59:52;22.70;;;15.80;;
59938;SDS011;45801;51.810;19.444;2023-10-19T12:02:19;21.80;;;14.80;;
59938;SDS011;45801;51.810;19.444;2023-10-19T12:04:45;22.90;;;15.80;;
59938;SDS011;45801;51.810;19.444;2023-10-19T12:07:12;22.20;;;14.60;;
59938;SDS011;45801;51.810;19.444;2023-10-19T12:09:38;23.30;;;15.90;;
59938;SDS011;45801;51.810;19.444;2023-10-19T12:12:08;23.60;;;16.60;;
59938;SDS011;45801;51.810;19.444;2023-10-19T12:14:36;22.50;;;15.70;;
59938;SDS011;45801;51.810;19.444;2023-10-19T12:17:03;25.10;;;16.60;;
59938;SDS011;45801;51.810;19.444;2023-10-19T12:19:29;24.10;;;16.00;;
59938;SDS011;45801;51.810;19.444;2023-10-19T12:21:56;24.70;;;17.00;;
59938;SDS011;45801;51.810;19.444;2023-10-19T12:24:23;25.40;;;16.30;;
59938;SDS011;45801;51.810;19.444;2023-10-19T12:26:50;24.60;;;16.60;;
59938;SDS011;45801;51.810;19.444;2023-10-19T12:29:17;23.50;;;16.50;;
59938;SDS011;45801;51.810;19.444;2023-10-19T12:31:47;25.00;;;16.30;;
59938;SDS011;45801;51.810;19.444;2023-10-19T12:34:14;24.70;;;16.10;;
59938;SDS011;45801;51.810;19.444;2023-10-19T12:36:42;25.10;;;17.40;;
59938;SDS011;45801;51.810;19.444;2023-10-19T12:39:11;23.90;;;16.30;;
59938;SDS011;45801;51.810;19.444;2023-10-19T12:41:57;22.50;;;11.50;;
59938;SDS011;45801;51.810;19.444;2023-10-19T12:47:15;25.50;;;16.70;;
59938;SDS011;45801;51.810;19.444;2023-10-19T12:49:43;22.70;;;15.60;;
59938;SDS011;45801;51.810;19.444;2023-10-19T12:52:12;27.10;;;16.60;;
59938;SDS011;45801;51.810;19.444;2023-10-19T12:54:38;24.20;;;16.80;;
59938;SDS011;45801;51.810;19.444;2023-10-19T12:57:05;23.50;;;16.60;;
59938;SDS011;45801;51.810;19.444;2023-10-19T12:59:35;26.40;;;16.50;;
59938;SDS011;45801;51.810;19.444;2023-10-19T13:02:05;25.40;;;17.20;;
59938;SDS011;45801;51.810;19.444;2023-10-19T13:04:34;26.70;;;18.00;;
59938;SDS011;45801;51.810;19.444;2023-10-19T13:07:02;26.70;;;18.50;;
59938;SDS011;45801;51.810;19.444;2023-10-19T13:09:29;27.70;;;18.10;;
59938;SDS011;45801;51.810;19.444;2023-10-19T13:11:59;26.90;;;19.40;;
59938;SDS011;45801;51.810;19.444;2023-10-19T13:14:26;26.10;;;17.90;;
59938;SDS011;45801;51.810;19.444;2023-10-19T13:16:54;24.30;;;17.50;;
59938;SDS011;45801;51.810;19.444;2023-10-19T13:19:21;27.50;;;18.70;;
59938;SDS011;45801;51.810;19.444;2023-10-19T13:21:51;26.90;;;18.00;;
59938;SDS011;45801;51.810;19.444;2023-10-19T13:24:18;29.60;;;19.90;;
59938;SDS011;45801;51.810;19.444;2023-10-19T13:26:47;27.80;;;20.00;;
59938;SDS011;45801;51.810;19.444;2023-10-19T13:29:14;27.70;;;19.90;;
59938;SDS011;45801;51.810;19.444;2023-10-19T13:31:44;27.70;;;20.10;;
59938;SDS011;45801;51.810;19.444;2023-10-19T13:34:15;26.30;;;19.50;;
59938;SDS011;45801;51.810;19.444;2023-10-19T13:36:43;24.60;;;17.70;;
59938;SDS011;45801;51.810;19.444;2023-10-19T13:39:11;30.30;;;19.90;;
59938;SDS011;45801;51.810;19.444;2023-10-19T13:41:43;26.50;;;19.10;;
59938;SDS011;45801;51.810;19.444;2023-10-19T13:44:10;27.50;;;19.20;;
59938;SDS011;45801;51.810;19.444;2023-10-19T13:46:38;26.40;;;19.00;;
59938;SDS011;45801;51.810;19.444;2023-10-19T13:49:04;27.00;;;18.90;;
59938;SDS011;45801;51.810;19.444;2023-10-19T13:51:32;26.50;;;19.70;;
59938;SDS011;45801;51.810;19.444;2023-10-19T13:53:59;25.40;;;19.70;;
59938;SDS011;45801;51.810;19.444;2023-10-19T13:56:26;27.70;;;19.90;;
59938;SDS011;45801;51.810;19.444;2023-10-19T13:58:52;24.00;;;18.00;;
59938;SDS011;45801;51.810;19.444;2023-10-19T14:01:19;29.60;;;19.20;;
59938;SDS011;45801;51.810;19.444;2023-10-19T14:03:51;26.60;;;20.00;;
59938;SDS011;45801;51.810;19.444;2023-10-19T14:06:21;29.30;;;20.40;;
59938;SDS011;45801;51.810;19.444;2023-10-19T14:08:48;30.70;;;19.90;;
59938;SDS011;45801;51.810;19.444;2023-10-19T14:11:15;28.30;;;19.50;;
59938;SDS011;45801;51.810;19.444;2023-10-19T14:13:41;26.50;;;18.50;;
59938;SDS011;45801;51.810;19.444;2023-10-19T14:16:09;27.60;;;20.30;;
59938;SDS011;45801;51.810;19.444;2023-10-19T14:18:36;29.60;;;20.20;;
59938;SDS011;45801;51.810;19.444;2023-10-19T14:21:16;26.10;;;19.20;;
59938;SDS011;45801;51.810;19.444;2023-10-19T14:23:44;32.50;;;23.50;;
59938;SDS011;45801;51.810;19.444;2023-10-19T14:26:11;33.50;;;24.30;;
59938;SDS011;45801;51.810;19.444;2023-10-19T14:28:38;31.50;;;22.50;;
59938;SDS011;45801;51.810;19.444;2023-10-19T14:31:06;30.60;;;21.40;;
59938;SDS011;45801;51.810;19.444;2023-10-19T14:33:33;29.20;;;20.40;;
59938;SDS011;45801;51.810;19.444;2023-10-19T14:36:02;30.60;;;21.10;;
59938;SDS011;45801;51.810;19.444;2023-10-19T14:38:30;31.00;;;21.20;;
59938;SDS011;45801;51.810;19.444;2023-10-19T14:40:57;33.00;;;23.40;;
59938;SDS011;45801;51.810;19.444;2023-10-19T14:43:24;30.90;;;21.60;;
59938;SDS011;45801;51.810;19.444;2023-10-19T14:45:52;30.30;;;22.20;;
59938;SDS011;45801;51.810;19.444;2023-10-19T14:48:18;38.30;;;25.90;;
59938;SDS011;45801;51.810;19.444;2023-10-19T14:50:46;36.40;;;28.10;;
59938;SDS011;45801;51.810;19.444;2023-10-19T14:53:13;32.90;;;24.70;;